Time;durP1;ratioP1;P1;durP2;ratioP2;P2;SDS_P1;SDS_P2;PMS_P1;PMS_P2;Temp;Humidity;BMP_temperature;BMP_pressure;BME280_temperature;BME280_humidity;BME280_pressure;Samples;Min_cycle;Max_cycle;Signal;HPM_P1;HPM_P2
2022/06/17 00:00:59;;;;;;;12.40;8.35;;;;;;;19.52;57.80;102211.97;5014567;28;20049;-74
2022/06/17 00:03:28;;;;;;;9.57;7.28;;;;;;;19.58;57.43;102207.91;5012608;28;20030;-75
2022/06/17 00:05:56;;;;;;;9.02;7.10;;;;;;;19.59;57.63;102210.50;5014152;28;20024;-75
2022/06/17 00:08:43;;;;;;;14.05;7.72;;;;;;;19.60;57.34;102212.22;5014141;28;20040;-74
2022/06/17 00:11:15;;;;;;;9.57;7.80;;;;;;;19.58;57.93;102211.47;4997703;28;20600;-75
2022/06/17 00:13:40;;;;;;;14.00;7.85;;;;;;;19.43;58.23;102215.38;5021583;28;20112;-75
2022/06/17 00:16:14;;;;;;;11.32;7.32;;;;;;;19.49;57.83;102202.25;5014038;28;20117;-76
2022/06/17 00:18:40;;;;;;;8.77;7.07;;;;;;;19.42;58.59;102219.06;5013573;28;20500;-75
2022/06/17 00:21:05;;;;;;;10.38;7.45;;;;;;;19.40;58.51;102223.72;4996481;28;20061;-75
2022/06/17 00:23:31;;;;;;;9.15;6.68;;;;;;;19.13;59.53;102218.66;5013713;28;20083;-75
2022/06/17 00:25:56;;;;;;;8.25;7.18;;;;;;;19.26;59.04;102231.06;4995260;28;20091;-75
2022/06/17 00:28:24;;;;;;;14.85;7.88;;;;;;;19.24;58.92;102227.63;5017497;28;20029;-75
2022/06/17 00:30:50;;;;;;;9.48;8.20;;;;;;;19.29;58.74;102227.25;4999432;28;20026;-75
2022/06/17 00:33:17;;;;;;;9.88;8.02;;;;;;;19.26;58.85;102214.00;5012670;28;20393;-74
2022/06/17 00:35:54;;;;;;;9.98;7.60;;;;;;;19.20;58.49;102209.94;4995927;28;20033;-74
2022/06/17 00:38:28;;;;;;;9.23;8.32;;;;;;;19.15;59.08;102225.66;5013526;28;20477;-74
2022/06/17 00:40:53;;;;;;;9.88;7.85;;;;;;;18.93;59.81;102223.72;4995743;28;20050;-74
2022/06/17 00:43:30;;;;;;;10.48;8.20;;;;;;;18.92;59.62;102242.75;5012993;28;20385;-75
2022/06/17 00:46:19;;;;;;;12.18;7.97;;;;;;;19.00;59.35;102237.59;4996611;28;20026;-75
2022/06/17 00:49:11;;;;;;;9.63;7.82;;;;;;;18.99;59.10;102228.66;5013484;28;20097;-75
2022/06/17 00:51:49;;;;;;;10.25;8.48;;;;;;;18.89;59.53;102219.56;5013987;28;20124;-75
2022/06/17 00:54:24;;;;;;;10.88;7.85;;;;;;;18.87;59.49;102220.66;5015163;28;20100;-75
2022/06/17 00:56:50;;;;;;;13.95;8.20;;;;;;;18.85;59.90;102212.66;5013600;28;20030;-75
2022/06/17 00:59:16;;;;;;;10.20;7.93;;;;;;;18.68;60.40;102207.66;5014451;28;20358;-74
2022/06/17 01:02:01;;;;;;;10.38;7.88;;;;;;;18.71;59.71;102213.72;5012308;28;20026;-75
2022/06/17 01:04:44;;;;;;;10.38;7.72;;;;;;;18.68;59.77;102218.44;5012843;28;20092;-75
2022/06/17 01:07:23;;;;;;;10.68;7.55;;;;;;;18.67;60.22;102217.59;5013263;28;20025;-75
2022/06/17 01:09:58;;;;;;;;;;;;;;;18.90;57.91;102217.72;5012655;28;20428;-75
2022/06/17 01:12:27;;;;;;;10.88;7.40;;;;;;;18.47;61.24;102221.81;5012990;28;19943;-74
2022/06/17 01:14:55;;;;;;;8.93;7.75;;;;;;;18.56;61.13;102210.34;4995468;28;20029;-75
2022/06/17 01:17:21;;;;;;;8.87;7.03;;;;;;;18.52;61.00;102202.59;5012787;28;20030;-75
2022/06/17 01:19:51;;;;;;;8.73;7.22;;;;;;;18.48;61.41;102215.44;5012229;28;20056;-74
2022/06/17 01:22:26;;;;;;;9.38;7.38;;;;;;;18.54;60.94;102220.38;4994019;28;20026;-74
2022/06/17 01:25:12;;;;;;;8.88;7.65;;;;;;;18.46;61.42;102233.53;5012898;28;20034;-74
2022/06/17 01:27:44;;;;;;;9.52;8.13;;;;;;;18.41;61.89;102216.00;5007894;28;20029;-75
2022/06/17 01:30:18;;;;;;;12.20;8.02;;;;;;;18.33;62.18;102220.13;5032578;28;20036;-75
2022/06/17 01:32:55;;;;;;;8.25;7.45;;;;;;;18.28;62.24;102216.06;5022164;28;20034;-74
2022/06/17 01:35:23;;;;;;;11.48;8.13;;;;;;;18.20;62.45;102213.06;5032146;28;20025;-75
2022/06/17 01:37:49;;;;;;;12.47;8.23;;;;;;;18.34;62.29;102224.53;5027067;28;20528;-74
2022/06/17 01:40:17;;;;;;;9.48;8.20;;;;;;;18.25;62.31;102217.13;5011872;28;20080;-75
2022/06/17 01:42:44;;;;;;;10.38;8.38;;;;;;;18.33;62.13;102224.66;4993799;28;20121;-74
2022/06/17 01:45:15;;;;;;;12.02;8.07;;;;;;;18.28;62.29;102224.13;5012475;28;20091;-75
2022/06/17 01:47:44;;;;;;;8.25;6.93;;;;;;;18.26;62.27;102224.22;5012140;28;20021;-75
2022/06/17 01:50:27;;;;;;;10.13;8.15;;;;;;;18.17;62.49;102227.59;5012333;28;20032;-75
2022/06/17 01:53:14;;;;;;;11.65;7.72;;;;;;;18.15;62.98;102216.09;4950865;28;20443;-75
2022/06/17 01:55:49;;;;;;;11.20;7.65;;;;;;;18.08;63.15;102222.91;4951588;28;20039;-74
2022/06/17 01:58:23;;;;;;;11.85;7.35;;;;;;;18.06;62.92;102219.44;4951222;28;20043;-75
2022/06/17 02:00:49;;;;;;;9.85;7.40;;;;;;;18.16;63.14;102228.59;4950757;28;20050;-75
2022/06/17 02:03:24;;;;;;;10.32;8.88;;;;;;;18.07;63.07;102219.34;4951384;28;20497;-74
2022/06/17 02:05:56;;;;;;;11.63;7.80;;;;;;;18.16;63.15;102217.81;4946307;28;20030;-75
2022/06/17 02:08:22;;;;;;;10.00;8.30;;;;;;;18.15;63.11;102222.34;4970446;28;20173;-74
2022/06/17 02:10:49;;;;;;;12.18;8.25;;;;;;;18.03;63.13;102207.09;4967006;28;20062;-75
2022/06/17 02:13:15;;;;;;;9.43;7.50;;;;;;;18.06;62.97;102219.44;4934831;28;20039;-75
2022/06/17 02:15:42;;;;;;;16.48;7.97;;;;;;;18.08;63.10;102223.75;4950913;28;20475;-74
2022/06/17 02:18:14;;;;;;;8.98;7.65;;;;;;;17.99;63.73;102223.56;4951184;28;20384;-75
2022/06/17 02:20:40;;;;;;;13.32;7.32;;;;;;;17.88;63.96;102219.84;4950176;28;20082;-75
2022/06/17 02:23:07;;;;;;;8.48;7.55;;;;;;;17.96;63.92;102219.25;4955019;28;20058;-75
2022/06/17 02:25:47;;;;;;;8.00;7.00;;;;;;;17.89;63.93;102221.53;4994416;28;20040;-75
2022/06/17 02:28:18;;;;;;;11.77;7.85;;;;;;;17.87;64.03;102214.53;4993457;28;20069;-75
2022/06/17 02:30:47;;;;;;;9.63;8.02;;;;;;;17.89;63.91;102213.47;5011233;28;20076;-75
2022/06/17 02:33:13;;;;;;;11.03;7.80;;;;;;;17.77;63.98;102211.63;5010699;28;20460;-75
2022/06/17 02:35:49;;;;;;;9.98;8.32;;;;;;;17.75;64.14;102218.09;5011456;28;20064;-75
2022/06/17 02:38:18;;;;;;;10.48;8.02;;;;;;;17.80;63.79;102213.28;5010662;28;20034;-75
2022/06/17 02:40:48;;;;;;;12.90;8.95;;;;;;;17.82;63.68;102208.63;5011295;28;20508;-74
2022/06/17 02:43:18;;;;;;;10.25;8.35;;;;;;;17.64;63.80;102210.78;5010702;28;20029;-74
2022/06/17 02:45:46;;;;;;;10.05;8.38;;;;;;;17.70;63.50;102213.03;5031067;28;20396;-75
2022/06/17 02:48:21;;;;;;;12.65;9.07;;;;;;;17.58;63.73;102208.53;5016799;28;20017;-75
2022/06/17 02:50:47;;;;;;;10.50;8.70;;;;;;;17.64;63.46;102211.63;5010952;28;20034;-74
2022/06/17 02:53:16;;;;;;;13.13;8.73;;;;;;;17.64;63.20;102214.31;5011273;28;20069;-75
2022/06/17 02:55:43;;;;;;;11.82;8.98;;;;;;;17.66;62.97;102216.91;5011361;28;20101;-75
2022/06/17 02:58:22;;;;;;;11.15;8.43;;;;;;;17.63;63.05;102218.00;5009951;28;20478;-75
2022/06/17 03:00:50;;;;;;;13.13;8.93;;;;;;;17.59;63.07;102212.91;5010342;28;20052;-75
2022/06/17 03:03:21;;;;;;;11.38;8.57;;;;;;;17.57;63.13;102206.81;4993782;28;20076;-75
2022/06/17 03:05:46;;;;;;;9.52;8.52;;;;;;;17.43;63.85;102213.16;5011198;28;20504;-75
2022/06/17 03:08:24;;;;;;;10.55;8.57;;;;;;;17.54;63.42;102207.88;4993814;28;20033;-75
2022/06/17 03:10:55;;;;;;;13.77;8.73;;;;;;;17.45;63.65;102206.69;4992673;28;20026;-75
2022/06/17 03:13:27;;;;;;;10.43;8.52;;;;;;;17.53;63.58;102210.66;5010388;28;20033;-75
2022/06/17 03:15:57;;;;;;;9.85;8.85;;;;;;;17.55;63.60;102211.44;5010999;28;20495;-75
2022/06/17 03:18:24;;;;;;;12.43;9.05;;;;;;;17.47;63.44;102211.97;5011027;28;20040;-75
2022/06/17 03:20:51;;;;;;;13.25;9.18;;;;;;;17.36;63.90;102211.88;4992543;28;20029;-74
2022/06/17 03:23:20;;;;;;;15.90;9.25;;;;;;;17.37;63.64;102216.28;5010922;28;20420;-75
2022/06/17 03:26:06;;;;;;;10.77;9.25;;;;;;;17.39;63.30;102220.59;5010214;28;20159;-75
2022/06/17 03:28:41;;;;;;;12.98;9.98;;;;;;;17.42;63.40;102227.59;5009535;28;20120;-75
2022/06/17 03:31:14;;;;;;;11.50;9.05;;;;;;;17.42;63.39;102217.69;5010848;28;20022;-75
2022/06/17 03:34:01;;;;;;;10.55;9.02;;;;;;;17.54;62.88;102232.09;4992928;28;20034;-75
2022/06/17 03:36:41;;;;;;;12.93;9.93;;;;;;;17.39;63.46;102228.66;5000133;28;20072;-74
2022/06/17 03:39:23;;;;;;;14.75;9.40;;;;;;;17.47;63.22;102242.44;5011105;28;20044;-74
2022/06/17 03:41:56;;;;;;;12.75;9.95;;;;;;;17.51;63.55;102245.75;5010467;28;20037;-75
2022/06/17 03:44:31;;;;;;;13.48;9.85;;;;;;;17.42;63.43;102249.97;5010343;28;20077;-74
2022/06/17 03:47:17;;;;;;;10.82;9.50;;;;;;;17.43;62.95;102235.53;5010200;28;20068;-74
2022/06/17 03:50:05;;;;;;;12.10;9.90;;;;;;;17.47;64.08;102245.13;5010701;28;20034;-75
2022/06/17 03:52:43;;;;;;;13.25;9.98;;;;;;;17.56;63.63;102256.19;4992966;28;20113;-75
2022/06/17 03:55:16;;;;;;;12.27;10.82;;;;;;;17.52;63.62;102249.31;5010653;28;20041;-75
2022/06/17 03:57:44;;;;;;;11.77;10.38;;;;;;;17.57;63.99;102255.25;5009539;28;20055;-75
2022/06/17 04:00:28;;;;;;;12.98;10.57;;;;;;;17.65;63.50;102245.66;5010755;28;20034;-74
2022/06/17 04:02:55;;;;;;;13.43;10.13;;;;;;;17.69;63.74;102247.16;5011414;28;20060;-74
2022/06/17 04:05:21;;;;;;;14.05;10.68;;;;;;;17.64;63.80;102235.84;5014257;28;20025;-75
2022/06/17 04:07:47;;;;;;;16.52;12.48;;;;;;;17.68;62.14;102237.38;5012606;28;20026;-75
2022/06/17 04:10:20;;;;;;;14.10;11.70;;;;;;;17.59;62.71;102218.31;5014274;28;20532;-74
2022/06/17 04:12:48;;;;;;;14.25;11.43;;;;;;;17.70;62.80;102248.00;5013533;28;20026;-74
2022/06/17 04:15:25;;;;;;;12.25;10.75;;;;;;;17.64;63.67;102249.31;4998535;28;20042;-74
2022/06/17 04:17:53;;;;;;;14.85;12.15;;;;;;;17.77;63.34;102246.63;5021886;28;20079;-74
2022/06/17 04:20:50;;;;;;;14.52;11.38;;;;;;;17.85;63.10;102246.97;5013454;28;20022;-75
2022/06/17 04:23:33;;;;;;;16.27;11.25;;;;;;;17.78;63.57;102234.06;5011346;28;20124;-75
2022/06/17 04:26:29;;;;;;;14.82;11.32;;;;;;;17.88;64.00;102232.41;5012851;28;20026;-75
2022/06/17 04:29:01;;;;;;;13.80;11.38;;;;;;;17.76;64.23;102217.97;5013268;28;20026;-75
2022/06/17 04:31:31;;;;;;;14.38;11.57;;;;;;;17.86;62.24;102227.16;5013736;28;20052;-74
2022/06/17 04:33:59;;;;;;;;;;;;;;;18.01;62.01;102230.56;4996561;28;20390;-75
2022/06/17 04:36:30;;;;;;;13.23;11.30;;;;;;;17.91;63.59;102234.88;5010624;28;20443;-74
2022/06/17 04:39:00;;;;;;;16.95;11.52;;;;;;;18.02;62.90;102229.59;5013668;28;20026;-75
2022/06/17 04:41:31;;;;;;;14.05;12.10;;;;;;;17.89;63.87;102213.47;5012402;28;20052;-74
2022/06/17 04:43:59;;;;;;;17.58;12.10;;;;;;;17.95;63.67;102222.94;5030638;28;20027;-75
2022/06/17 04:46:30;;;;;;;13.93;11.95;;;;;;;18.00;61.62;102220.78;5033410;28;20030;-75
2022/06/17 04:48:57;;;;;;;16.92;11.98;;;;;;;17.98;63.19;102209.25;5015344;28;20551;-74
2022/06/17 04:51:31;;;;;;;15.82;11.95;;;;;;;18.00;63.36;102206.44;4999383;28;20026;-75
2022/06/17 04:53:57;;;;;;;17.20;11.95;;;;;;;17.95;63.27;102204.09;5013261;28;20026;-75
2022/06/17 04:56:29;;;;;;;18.63;11.50;;;;;;;18.04;61.59;102211.50;5013520;28;20065;-74
2022/06/17 04:58:55;;;;;;;15.85;11.48;;;;;;;18.10;64.25;102202.09;5010501;28;20029;-75
2022/06/17 05:01:22;;;;;;;16.27;11.00;;;;;;;18.14;62.61;102204.44;5013735;28;20052;-75
2022/06/17 05:03:48;;;;;;;14.30;11.45;;;;;;;18.11;61.30;102198.44;5014501;28;20083;-74
2022/06/17 05:06:14;;;;;;;16.98;11.27;;;;;;;18.17;60.78;102204.22;5015197;28;20046;-75
2022/06/17 05:08:48;;;;;;;16.10;10.68;;;;;;;18.21;60.13;102206.72;5014349;28;20116;-74
2022/06/17 05:11:31;;;;;;;16.75;11.15;;;;;;;18.29;60.05;102215.91;5014771;28;20049;-74
2022/06/17 05:14:04;;;;;;;12.68;10.57;;;;;;;18.28;60.46;102206.13;5010708;28;20044;-75
2022/06/17 05:16:32;;;;;;;14.68;9.98;;;;;;;18.34;60.35;102207.50;5012762;28;20029;-74
2022/06/17 05:18:58;;;;;;;15.25;10.68;;;;;;;18.40;60.23;102212.44;5011609;28;20037;-75
2022/06/17 05:21:24;;;;;;;16.45;10.55;;;;;;;18.40;60.48;102207.06;4977999;28;20444;-75
2022/06/17 05:23:54;;;;;;;12.27;10.60;;;;;;;18.42;60.55;102204.25;5012316;28;20030;-75
2022/06/17 05:26:19;;;;;;;16.05;9.80;;;;;;;18.48;60.56;102209.19;5012476;28;20022;-75
2022/06/17 05:28:46;;;;;;;19.15;11.32;;;;;;;18.42;59.78;102201.56;4996646;28;20083;-75
2022/06/17 05:31:18;;;;;;;14.63;10.23;;;;;;;18.47;59.74;102212.84;4978972;28;20026;-74
2022/06/17 05:33:43;;;;;;;16.08;9.98;;;;;;;18.50;59.34;102201.81;5011804;28;20029;-75
2022/06/17 05:36:09;;;;;;;11.68;9.50;;;;;;;18.52;59.29;102199.88;5018008;28;20042;-75
2022/06/17 05:38:37;;;;;;;13.90;9.35;;;;;;;18.58;58.78;102197.59;5010017;28;20044;-74
2022/06/17 05:41:05;;;;;;;14.68;10.18;;;;;;;18.59;58.75;102198.47;5012013;28;20128;-74
2022/06/17 05:43:30;;;;;;;13.73;9.30;;;;;;;18.69;59.04;102193.22;5011880;28;20534;-75
2022/06/17 05:45:56;;;;;;;17.60;10.48;;;;;;;18.65;58.66;102186.34;5011656;28;20109;-74
2022/06/17 05:48:21;;;;;;;16.70;9.55;;;;;;;18.64;58.06;102198.09;4996869;28;20481;-74
2022/06/17 05:50:47;;;;;;;16.60;9.23;;;;;;;18.69;58.47;102195.94;5006781;28;20034;-75
2022/06/17 05:53:15;;;;;;;18.42;9.80;;;;;;;18.70;58.22;102184.16;5011701;28;20044;-75
2022/06/17 05:55:40;;;;;;;16.67;8.77;;;;;;;18.68;58.31;102181.59;4997921;28;20099;-75
2022/06/17 05:58:06;;;;;;;20.67;9.38;;;;;;;18.68;60.26;102184.28;5031135;28;20056;-74
2022/06/17 06:00:34;;;;;;;11.35;9.45;;;;;;;18.72;60.06;102180.38;5031206;28;20094;-74
2022/06/17 06:03:02;;;;;;;16.42;8.77;;;;;;;18.69;60.54;102185.16;5011788;28;20136;-74
2022/06/17 06:05:31;;;;;;;9.48;7.88;;;;;;;18.68;61.33;102173.50;5011378;28;20025;-74
2022/06/17 06:07:59;;;;;;;10.45;8.77;;;;;;;18.81;59.53;102182.41;4993710;28;20029;-74
2022/06/17 06:10:26;;;;;;;14.23;8.23;;;;;;;18.86;59.33;102162.34;5012121;28;20029;-74
2022/06/17 06:12:56;;;;;;;15.90;7.75;;;;;;;18.92;59.63;102173.50;5018714;28;20307;-74
2022/06/17 06:15:22;;;;;;;10.68;7.88;;;;;;;19.03;58.95;102167.25;4996219;28;20030;-74
2022/06/17 06:17:50;;;;;;;10.90;7.78;;;;;;;19.08;59.76;102170.44;5018065;28;20030;-74
2022/06/17 06:20:16;;;;;;;12.90;7.75;;;;;;;19.07;58.60;102166.06;5011840;28;20033;-74
2022/06/17 06:22:42;;;;;;;13.93;7.20;;;;;;;19.11;58.58;102166.66;4993606;28;20070;-75
2022/06/17 06:25:09;;;;;;;12.45;7.45;;;;;;;19.17;57.69;102163.47;5007726;28;20109;-75
2022/06/17 06:27:35;;;;;;;9.48;7.22;;;;;;;19.14;58.76;102161.03;4989275;28;20227;-74
2022/06/17 06:30:02;;;;;;;8.00;6.47;;;;;;;19.21;57.02;102171.22;4991243;28;20489;-75
2022/06/17 06:32:28;;;;;;;9.20;7.03;;;;;;;19.26;57.32;102173.53;5010941;28;20088;-75
2022/06/17 06:34:53;;;;;;;10.88;6.43;;;;;;;19.32;59.03;102177.59;5010345;28;20041;-74
2022/06/17 06:37:19;;;;;;;9.85;6.35;;;;;;;19.35;56.94;102189.00;5010145;28;20512;-74
2022/06/17 06:39:45;;;;;;;11.82;6.57;;;;;;;19.42;56.38;102201.03;5010780;28;20038;-74
2022/06/17 06:42:11;;;;;;;9.88;6.43;;;;;;;19.47;55.87;102201.56;5010643;28;20057;-74
2022/06/17 06:44:36;;;;;;;10.93;6.82;;;;;;;19.47;55.99;102189.88;5009808;28;20497;-74
2022/06/17 06:47:02;;;;;;;6.85;6.05;;;;;;;19.54;56.09;102199.22;5010684;28;20030;-75
2022/06/17 06:49:28;;;;;;;14.30;7.10;;;;;;;19.54;54.98;102191.13;5010980;28;20117;-73
2022/06/17 06:51:53;;;;;;;11.18;6.65;;;;;;;19.50;55.84;102192.31;5010397;28;20841;-75
2022/06/17 06:54:18;;;;;;;16.65;6.63;;;;;;;19.60;55.96;102189.78;4992956;28;20485;-74
2022/06/17 06:56:44;;;;;;;10.07;6.50;;;;;;;19.73;56.22;102188.69;5016293;28;20124;-74
2022/06/17 06:59:11;;;;;;;9.07;6.63;;;;;;;19.85;55.46;102192.22;5008582;28;20059;-74
2022/06/17 07:01:37;;;;;;;13.48;6.85;;;;;;;19.91;55.74;102199.84;5010722;28;20376;-74
2022/06/17 07:04:04;;;;;;;11.77;7.05;;;;;;;20.07;56.06;102210.25;5010734;28;20028;-74
2022/06/17 07:06:29;;;;;;;14.18;7.30;;;;;;;20.30;55.37;102210.22;5011054;28;20034;-74
2022/06/17 07:08:55;;;;;;;7.95;5.75;;;;;;;20.54;54.78;102208.19;4992744;28;20033;-73
2022/06/17 07:11:20;;;;;;;12.80;6.32;;;;;;;20.69;55.05;102206.06;5011222;28;20037;-74
2022/06/17 07:13:48;;;;;;;10.23;6.45;;;;;;;20.81;53.86;102204.16;5023055;28;20377;-74
2022/06/17 07:16:14;;;;;;;10.20;5.97;;;;;;;20.97;55.29;102187.47;4998029;28;20029;-75
2022/06/17 07:18:39;;;;;;;9.82;5.80;;;;;;;21.03;52.67;102185.09;4993345;28;20481;-74
2022/06/17 07:21:07;;;;;;;10.88;5.47;;;;;;;21.07;51.82;102193.81;5008925;28;20049;-74
2022/06/17 07:23:36;;;;;;;8.30;4.87;;;;;;;21.15;52.12;102196.72;5010291;28;20030;-74
2022/06/17 07:26:11;;;;;;;8.80;4.85;;;;;;;21.22;51.89;102191.63;5010026;28;20911;-74
2022/06/17 07:28:37;;;;;;;9.20;5.20;;;;;;;21.35;52.79;102197.66;5006573;28;20057;-74
2022/06/17 07:31:03;;;;;;;7.47;5.07;;;;;;;21.39;51.18;102182.94;4993282;28;20116;-74
2022/06/17 07:33:34;;;;;;;6.00;4.88;;;;;;;21.49;49.90;102193.78;4997824;28;20070;-75
2022/06/17 07:36:04;;;;;;;8.60;4.95;;;;;;;21.58;50.63;102184.84;4992459;28;20029;-74
2022/06/17 07:41:24;;;;;;;10.73;4.82;;;;;;;21.69;50.28;102181.19;5023600;28;20140;-74
2022/06/17 07:43:51;;;;;;;9.30;5.20;;;;;;;21.70;49.68;102188.31;5033672;28;20499;-74
2022/06/17 07:46:17;;;;;;;10.85;4.80;;;;;;;21.77;52.99;102194.91;5028982;28;20038;-74
2022/06/17 07:48:42;;;;;;;9.25;4.53;;;;;;;21.88;49.74;102193.94;5014165;28;20092;-74
2022/06/17 07:51:09;;;;;;;10.45;4.53;;;;;;;22.05;48.61;102200.56;5014469;28;20033;-74
2022/06/17 07:53:35;;;;;;;7.70;5.07;;;;;;;22.16;48.69;102197.75;5020475;28;20032;-74
2022/06/17 07:56:01;;;;;;;9.65;4.65;;;;;;;;;;5017323;28;20030;-75
2022/06/17 07:58:27;;;;;;;11.18;4.82;;;;;;;22.32;48.45;102195.34;5013888;28;20026;-74
2022/06/17 08:00:53;;;;;;;5.00;4.03;;;;;;;22.44;48.66;102191.53;4996724;28;20076;-75
2022/06/17 08:03:19;;;;;;;6.70;4.93;;;;;;;22.65;47.90;102188.69;5014088;28;20109;-74
2022/06/17 08:05:52;;;;;;;6.95;4.38;;;;;;;22.74;47.94;102186.13;5012573;28;20040;-74
2022/06/17 08:08:23;;;;;;;9.75;4.38;;;;;;;22.77;47.54;102192.09;5013577;28;20038;-74
2022/06/17 08:10:56;;;;;;;6.55;4.30;;;;;;;22.90;46.83;102199.94;5014159;28;20021;-75
2022/06/17 08:13:22;;;;;;;6.47;4.10;;;;;;;22.96;46.70;102207.53;4995905;28;20022;-75
2022/06/17 08:15:52;;;;;;;9.00;4.10;;;;;;;22.93;46.00;102207.78;5013260;28;20034;-75
2022/06/17 08:18:20;;;;;;;4.78;2.80;;;;;;;23.13;46.72;102209.50;4995166;28;20025;-75
2022/06/17 08:20:46;;;;;;;8.43;4.30;;;;;;;23.27;45.74;102212.78;5015134;28;20029;-74
2022/06/17 08:23:14;;;;;;;7.55;3.70;;;;;;;23.50;45.74;102205.13;5033365;28;20377;-74
2022/06/17 08:25:41;;;;;;;6.18;3.42;;;;;;;23.63;44.57;102215.66;5033489;28;20159;-75
2022/06/17 08:28:09;;;;;;;6.57;3.70;;;;;;;23.62;43.71;102212.09;5032840;28;20032;-76
2022/06/17 08:30:41;;;;;;;6.93;3.40;;;;;;;23.78;44.42;102215.03;5017916;28;20030;-75
2022/06/17 08:33:06;;;;;;;5.65;3.33;;;;;;;23.84;42.75;102215.47;5014078;28;20041;-75
2022/06/17 08:35:33;;;;;;;7.18;3.50;;;;;;;23.87;42.17;102182.56;5033601;28;20029;-72
2022/06/17 08:38:09;;;;;;;6.88;3.40;;;;;;;23.94;42.04;102189.97;5015258;28;20028;-72
2022/06/17 08:40:52;;;;;;;6.32;2.85;;;;;;;24.12;42.82;102176.41;5020715;28;20548;-71
2022/06/17 08:43:21;;;;;;;6.93;2.88;;;;;;;24.15;43.01;102173.38;5013004;28;20041;-71
2022/06/17 08:46:27;;;;;;;5.65;2.92;;;;;;;24.25;43.57;102176.88;5027895;28;20411;-71
2022/06/17 08:49:30;;;;;;;5.60;3.00;;;;;;;24.30;41.82;102183.72;4999397;28;20030;-71
2022/06/17 08:52:11;;;;;;;4.55;2.90;;;;;;;24.22;42.10;102188.03;4996695;28;20037;-71
2022/06/17 08:54:57;;;;;;;5.32;3.33;;;;;;;24.32;41.01;102192.56;5013035;28;20473;-71
2022/06/17 08:57:44;;;;;;;7.22;4.07;;;;;;;24.48;40.34;102184.59;5013273;28;20269;-71
2022/06/17 09:00:18;;;;;;;7.93;4.18;;;;;;;24.59;40.47;102183.50;5011796;28;20076;-70
2022/06/17 09:03:08;;;;;;;6.85;3.40;;;;;;;24.70;40.42;102195.00;4995603;28;20025;-71
2022/06/17 09:05:58;;;;;;;9.90;4.15;;;;;;;24.90;42.18;102192.09;5013119;28;20025;-71
2022/06/17 09:08:44;;;;;;;8.90;3.80;;;;;;;25.03;38.78;102198.00;4995529;28;20033;-71
2022/06/17 09:11:24;;;;;;;9.90;3.72;;;;;;;25.07;39.64;102195.81;5012868;28;20036;-70
2022/06/17 09:14:16;;;;;;;6.30;3.35;;;;;;;25.28;38.59;102195.47;4994761;28;20551;-64
2022/06/17 09:16:52;;;;;;;6.45;3.53;;;;;;;25.11;38.31;102189.88;5010955;28;20516;-64
2022/06/17 09:19:25;;;;;;;7.13;3.45;;;;;;;25.13;38.51;102177.00;5012700;28;20034;-65
2022/06/17 09:21:53;;;;;;;9.98;4.05;;;;;;;25.28;36.78;102182.72;5012490;28;20025;-69
2022/06/17 09:24:32;;;;;;;7.53;3.50;;;;;;;25.66;39.23;102191.44;5012589;28;20018;-73
2022/06/17 09:27:01;;;;;;;6.75;3.40;;;;;;;25.78;37.72;102200.16;5008857;28;20034;-71
2022/06/17 09:29:39;;;;;;;7.75;3.42;;;;;;;25.72;38.13;102196.22;5012435;28;20026;-71
2022/06/17 09:32:15;;;;;;;9.52;3.67;;;;;;;25.86;37.39;102194.78;5012400;28;20030;-70
2022/06/17 09:34:50;;;;;;;7.70;3.83;;;;;;;25.88;37.22;102181.81;5012399;28;20084;-66
2022/06/17 09:37:38;;;;;;;6.28;3.60;;;;;;;25.98;36.84;102188.00;5012270;28;20034;-71
2022/06/17 09:40:15;;;;;;;9.38;3.15;;;;;;;26.15;37.83;102182.59;5010233;28;20048;-68
2022/06/17 09:42:49;;;;;;;8.00;2.50;;;;;;;26.57;38.05;102181.69;5011482;28;20549;-67
2022/06/17 09:45:37;;;;;;;11.45;3.60;;;;;;;26.44;36.07;102187.59;5011933;28;20556;-74
2022/06/17 09:48:13;;;;;;;8.23;3.25;;;;;;;26.48;36.37;102189.81;5011804;28;20050;-69
2022/06/17 09:50:57;;;;;;;8.25;3.25;;;;;;;26.45;35.93;102187.44;5011470;28;20021;-69
2022/06/17 09:53:47;;;;;;;5.93;2.95;;;;;;;26.56;35.55;102194.47;5011521;28;20167;-67
2022/06/17 09:56:16;;;;;;;6.93;2.53;;;;;;;26.69;34.66;102185.78;4970866;28;20099;-65
2022/06/17 09:59:03;;;;;;;3.72;2.38;;;;;;;26.81;35.23;102187.13;5028829;28;20021;-65
2022/06/17 10:01:29;;;;;;;5.40;2.83;;;;;;;26.92;34.97;102178.59;5031634;28;20028;-65
2022/06/17 10:03:56;;;;;;;6.93;2.80;;;;;;;26.95;34.35;102171.94;5013779;28;20381;-65
2022/06/17 10:06:54;;;;;;;9.52;2.95;;;;;;;27.11;34.23;102165.59;5031260;28;20457;-65
2022/06/17 10:09:47;;;;;;;3.28;2.17;;;;;;;27.30;35.12;102165.25;5009912;28;20087;-65
2022/06/17 10:12:47;;;;;;;6.68;2.42;;;;;;;27.27;34.94;102160.16;5010880;28;20424;-65
2022/06/17 10:18:52;;;;;;;4.18;1.88;;;;;;;27.61;32.44;102161.72;4973752;28;20034;-64
2022/06/17 10:21:24;;;;;;;6.00;2.25;;;;;;;27.47;31.85;102151.53;4992865;28;20029;-66
2022/06/17 10:24:08;;;;;;;7.03;2.10;;;;;;;27.82;32.41;102153.78;4994210;28;20064;-65
2022/06/17 10:26:43;;;;;;;4.55;2.40;;;;;;;27.90;31.90;102144.69;5011564;28;20076;-66
2022/06/17 10:29:27;;;;;;;8.65;2.70;;;;;;;27.99;33.58;102140.88;5011200;28;20442;-66
2022/06/17 10:31:52;;;;;;;6.00;1.98;;;;;;;28.07;30.92;102142.72;5010691;28;20034;-66
2022/06/17 10:34:44;;;;;;;3.85;2.20;;;;;;;28.10;31.63;102147.84;5010911;28;20053;-65
2022/06/17 10:37:11;;;;;;;4.13;2.00;;;;;;;28.04;30.10;102145.81;5011487;28;20469;-68
2022/06/17 10:39:39;;;;;;;5.05;2.03;;;;;;;28.21;31.13;102143.84;5011068;28;20026;-64
2022/06/17 10:42:09;;;;;;;5.57;2.43;;;;;;;28.19;30.44;102146.75;5010991;28;20281;-64
2022/06/17 10:44:36;;;;;;;3.58;1.63;;;;;;;28.29;30.80;102143.75;5010233;28;20036;-64
2022/06/17 10:47:29;;;;;;;9.60;2.00;;;;;;;28.62;32.61;102140.78;4993676;28;20029;-64
2022/06/17 10:49:59;;;;;;;2.60;1.92;;;;;;;28.64;31.75;102131.34;5011527;28;20119;-64
2022/06/17 10:52:32;;;;;;;6.10;1.80;;;;;;;28.78;31.43;102134.31;4993565;28;20018;-64
2022/06/17 10:55:01;;;;;;;6.72;1.73;;;;;;;28.84;30.96;102133.59;4993208;28;20116;-64
2022/06/17 10:57:37;;;;;;;8.60;1.88;;;;;;;28.92;30.60;102126.13;5010710;28;20026;-64
2022/06/17 11:00:24;;;;;;;3.63;1.70;;;;;;;29.22;32.15;102139.03;5030822;28;20381;-65
2022/06/17 11:02:52;;;;;;;5.38;1.60;;;;;;;29.04;29.44;102129.28;5030367;28;20055;-64
2022/06/17 11:05:34;;;;;;;4.22;1.95;;;;;;;29.31;31.43;102119.56;5023648;28;20029;-64
2022/06/17 11:08:00;;;;;;;6.22;2.00;;;;;;;29.15;29.53;102111.50;5010991;28;20080;-64
2022/06/17 11:10:28;;;;;;;2.78;2.03;;;;;;;29.37;29.68;102124.28;5009436;28;20034;-64
2022/06/17 11:13:01;;;;;;;5.15;2.20;;;;;;;29.31;28.96;102111.34;5014506;28;20389;-64
2022/06/17 11:15:36;;;;;;;3.38;1.80;;;;;;;29.34;28.84;102104.63;4997759;28;20535;-64
2022/06/17 11:18:08;;;;;;;2.53;1.70;;;;;;;29.55;29.12;102103.84;5014860;28;20038;-64
2022/06/17 11:20:37;;;;;;;2.42;1.67;;;;;;;29.64;29.75;102100.81;5014713;28;20060;-64
2022/06/17 11:23:24;;;;;;;4.30;1.85;;;;;;;29.75;29.98;102093.16;5013115;28;20022;-64
2022/06/17 11:26:07;;;;;;;4.70;1.87;;;;;;;29.57;29.68;102099.03;5014766;28;20030;-63
2022/06/17 11:28:35;;;;;;;3.63;1.75;;;;;;;29.33;29.46;102098.31;5014399;28;20026;-64
2022/06/17 11:31:02;;;;;;;;;;;;;;;29.71;29.54;102086.34;5015035;28;20498;-63
2022/06/17 11:33:53;;;;;;;4.68;1.90;;;;;;;29.37;29.83;102093.28;5012767;28;19922;-65
2022/06/17 11:36:25;;;;;;;3.92;1.88;;;;;;;29.37;29.79;102079.56;5013891;28;20041;-64
2022/06/17 11:38:51;;;;;;;6.93;1.95;;;;;;;29.45;29.54;102075.88;5014355;28;20037;-64
2022/06/17 11:41:22;;;;;;;3.40;1.83;;;;;;;29.50;28.91;102081.63;5013670;28;20046;-64
2022/06/17 11:43:47;;;;;;;4.03;1.63;;;;;;;29.53;27.77;102073.88;5013936;28;20523;-64
2022/06/17 11:46:18;;;;;;;4.20;1.70;;;;;;;29.48;28.51;102073.59;4997048;28;20079;-65
2022/06/17 11:48:47;;;;;;;4.00;1.92;;;;;;;29.48;28.93;102073.59;5014265;28;20560;-64
2022/06/17 11:51:16;;;;;;;5.53;1.95;;;;;;;29.50;28.11;102076.97;5013925;28;20025;-64